Appling, Georgia
Current Conditions -  °F | °C
As of 9:55 AM on Sunday 23 Nov 2014 (Local Time) from KHQU Reporting Station
Overcast Overcast  
Wind Chill: 57°   Ceiling: 900
Heat Index: 57°   Visibility: 3mi
Dew Point: 57°   Wind: 12mph
Humidity: 100%   Direction: 80°E
Pressure: 30.1"   Gusts: 16mph
Location:  33.55°N, 82.32°W
Report Text: KHQU 231455Z AUTO 08010G14KT 3SM SCT005 BKN009 OVC019 14/14 A3010 RMK AO1 T01400140
Loading
Personal Weather Stations






























Interactive Weather Map New forecast layout! Learn more

10-Day Weather Forecast

Advertisements
Track Severe Weather on mobile